createdAt,value
2023-05-14T00:01:43.108Z,98606.56
2023-05-14T00:06:44.664Z,98592.78
2023-05-14T00:11:46.297Z,98578.75
2023-05-14T00:16:47.842Z,98560.50
2023-05-14T00:21:49.483Z,98556.72
2023-05-14T00:26:51.116Z,98558.44
2023-05-14T00:31:54.035Z,98558.53
2023-05-14T00:36:55.631Z,98552.16
2023-05-14T00:41:57.156Z,98545.22
2023-05-14T00:46:59.922Z,98546.84
2023-05-14T00:52:01.700Z,98542.28
2023-05-14T00:57:04.819Z,98540.56
2023-05-14T01:02:06.519Z,98538.31
2023-05-14T01:07:21.377Z,98520.63
2023-05-14T01:12:39.557Z,98527.47
2023-05-14T01:18:11.222Z,98528.44
2023-05-14T01:23:12.873Z,98527.19
2023-05-14T01:28:28.177Z,98523.97
2023-05-14T01:33:33.572Z,98526.13
2023-05-14T01:38:36.496Z,98519.94
2023-05-14T01:43:39.105Z,98510.66
2023-05-14T01:48:41.449Z,98515.69
2023-05-14T01:53:42.975Z,98515.00
2023-05-14T01:58:44.497Z,98499.81
2023-05-14T02:03:46.127Z,98500.47
2023-05-14T02:08:47.810Z,98485.69
2023-05-14T02:13:49.354Z,98488.28
2023-05-14T02:18:50.953Z,98483.09
2023-05-14T02:23:52.516Z,98478.84
2023-05-14T02:28:54.051Z,98482.06
2023-05-14T02:33:55.686Z,98478.28
2023-05-14T02:38:59.542Z,98471.84
2023-05-14T02:44:01.122Z,98452.84
2023-05-14T02:49:03.280Z,98449.41
2023-05-14T02:54:05.071Z,98434.22
2023-05-14T02:59:06.651Z,98434.41
2023-05-14T03:04:08.733Z,98431.84
2023-05-14T03:09:10.435Z,98438.22
2023-05-14T03:14:12.201Z,98444.19
2023-05-14T03:19:13.769Z,98438.22
2023-05-14T03:24:15.303Z,98437.16
2023-05-14T03:29:18.220Z,98436.31
2023-05-14T03:34:19.809Z,98442.28
2023-05-14T03:39:21.402Z,98451.19
2023-05-14T03:44:22.953Z,98439.16
2023-05-14T03:49:25.018Z,98437.47
2023-05-14T03:54:27.155Z,98430.31
2023-05-14T03:59:28.786Z,98433.28
2023-05-14T04:04:30.396Z,98428.50
2023-05-14T04:09:32.039Z,98424.75
2023-05-14T04:14:33.617Z,98421.94
2023-05-14T04:19:35.172Z,98415.75
2023-05-14T04:24:36.774Z,98406.72
2023-05-14T04:29:38.277Z,98408.63
2023-05-14T04:34:40.072Z,98415.63
2023-05-14T04:39:41.719Z,98400.91
2023-05-14T04:44:43.242Z,98400.44
2023-05-14T04:49:44.791Z,98387.34
2023-05-14T04:54:46.572Z,98389.44
2023-05-14T04:59:48.153Z,98394.56
2023-05-14T05:04:49.729Z,98388.41
2023-05-14T05:09:51.235Z,98387.44
2023-05-14T05:14:52.808Z,98384.47
2023-05-14T05:19:54.314Z,98381.47
2023-05-14T05:24:55.833Z,98372.97
2023-05-14T05:29:57.567Z,98372.47
2023-05-14T05:34:59.185Z,98366.66
2023-05-14T05:40:00.791Z,98367.81
2023-05-14T05:45:02.500Z,98367.16
2023-05-14T05:50:04.402Z,98368.75
2023-05-14T05:55:06.761Z,98360.25
2023-05-14T06:00:15.293Z,98356.19
2023-05-14T06:05:17.037Z,98354.13
2023-05-14T06:10:19.064Z,98351.06
2023-05-14T06:15:21.491Z,98341.16
2023-05-14T06:20:23.380Z,98348.97
2023-05-14T06:25:25.123Z,98344.06
2023-05-14T06:30:26.888Z,98339.50
2023-05-14T06:35:28.509Z,98339.91
2023-05-14T06:40:30.113Z,98336.53
2023-05-14T06:45:33.182Z,98324.41
2023-05-14T06:50:34.887Z,98329.81
2023-05-14T06:55:36.434Z,98331.88
2023-05-14T07:00:37.990Z,98340.03
2023-05-14T07:05:40.896Z,98332.69
2023-05-14T07:10:42.429Z,98329.28
2023-05-14T07:15:44.006Z,98327.63
2023-05-14T07:20:45.631Z,98318.00
2023-05-14T07:25:47.328Z,98324.31
2023-05-14T07:30:48.867Z,98324.66
2023-05-14T07:35:50.923Z,98309.94
2023-05-14T07:40:52.568Z,98308.34
2023-05-14T07:45:54.142Z,98300.06
2023-05-14T07:50:55.737Z,98292.94
2023-05-14T07:55:57.929Z,98297.63
2023-05-14T08:01:01.383Z,98285.94
2023-05-14T08:06:03.989Z,98295.25
2023-05-14T08:11:05.789Z,98289.94
2023-05-14T08:16:07.775Z,98278.16
2023-05-14T08:21:09.343Z,98277.63
2023-05-14T08:26:11.117Z,98266.56
2023-05-14T08:31:14.688Z,98259.34
2023-05-14T08:36:16.410Z,98253.47
2023-05-14T08:41:17.953Z,98245.97
2023-05-14T08:46:23.435Z,98244.66
2023-05-14T08:51:27.806Z,98230.94
2023-05-14T08:56:33.161Z,98238.34
2023-05-14T09:01:34.864Z,98234.56
2023-05-14T09:06:37.852Z,98242.66
2023-05-14T09:11:43.580Z,98240.09
2023-05-14T09:16:46.925Z,98233.69
2023-05-14T09:21:49.665Z,98215.22
2023-05-14T09:26:56.378Z,98207.84
2023-05-14T09:31:58.966Z,98203.09
2023-05-14T09:37:05.733Z,98210.88
2023-05-14T09:42:07.256Z,98202.25
2023-05-14T09:47:08.849Z,98197.91
2023-05-14T09:52:11.942Z,98190.66
2023-05-14T09:57:13.558Z,98198.09
2023-05-14T10:02:23.498Z,98190.66
2023-05-14T10:07:29.460Z,98194.25
2023-05-14T10:12:34.620Z,98204.81
2023-05-14T10:17:38.067Z,98208.63
2023-05-14T10:22:39.780Z,98194.56
2023-05-14T10:27:42.421Z,98189.06
2023-05-14T10:32:44.335Z,98186.50
2023-05-14T10:37:46.953Z,98177.13
2023-05-14T10:42:48.720Z,98170.44
2023-05-14T10:47:50.426Z,98156.41
2023-05-14T10:52:52.735Z,98124.38
2023-05-14T10:57:54.340Z,98109.00
2023-05-14T11:02:57.609Z,98106.44
2023-05-14T11:07:59.870Z,98101.88
2023-05-14T11:13:01.624Z,98118.25
2023-05-14T11:18:03.335Z,98124.59
2023-05-14T11:23:05.043Z,98107.28
2023-05-14T11:28:06.638Z,98117.91
2023-05-14T11:33:08.238Z,98115.34
2023-05-14T11:38:17.316Z,98107.72
2023-05-14T11:43:19.005Z,98109.31
2023-05-14T11:48:21.812Z,98102.06
2023-05-14T11:53:28.065Z,98115.16
2023-05-14T11:58:33.664Z,98104.53
2023-05-14T12:03:35.655Z,98098.75
2023-05-14T12:08:37.759Z,98074.84
2023-05-14T12:13:39.702Z,98061.78
2023-05-14T12:18:41.463Z,98067.63
2023-05-14T12:23:43.026Z,98058.81
2023-05-14T12:28:47.693Z,98076.84
2023-05-14T12:33:49.208Z,98068.47
2023-05-14T12:38:51.606Z,98070.28
2023-05-14T12:43:53.152Z,98064.13
2023-05-14T12:48:55.507Z,98058.81
2023-05-14T12:53:57.061Z,98071.13
2023-05-14T12:58:58.626Z,98061.34
2023-05-14T13:04:00.286Z,98054.78
2023-05-14T13:09:02.589Z,98054.09
2023-05-14T13:14:04.158Z,98064.31
2023-05-14T13:19:05.740Z,98040.81
2023-05-14T13:24:07.589Z,98040.06
2023-05-14T13:29:09.144Z,98016.16
2023-05-14T13:34:10.775Z,98019.78
2023-05-14T13:39:13.652Z,98017.63
2023-05-14T13:44:15.920Z,98026.72
2023-05-14T13:49:17.579Z,98021.38
2023-05-14T13:54:19.151Z,98016.91
2023-05-14T13:59:21.148Z,98011.13
2023-05-14T14:04:24.305Z,98011.91
2023-05-14T14:09:25.954Z,98011.59
2023-05-14T14:14:28.136Z,98006.06
2023-05-14T14:19:30.099Z,98011.81
2023-05-14T14:24:31.687Z,98005.41
2023-05-14T14:29:34.494Z,98013.06
2023-05-14T14:34:36.257Z,98008.41
2023-05-14T14:39:37.985Z,98005.41
2023-05-14T14:44:39.819Z,98007.97
2023-05-14T14:49:41.705Z,97999.25
2023-05-14T14:54:43.654Z,98010.97
2023-05-14T14:59:46.552Z,98017.13
2023-05-14T15:04:48.593Z,98009.16
2023-05-14T15:09:50.571Z,98005.66
2023-05-14T15:14:52.542Z,97992.66
2023-05-14T15:19:54.599Z,97999.25
2023-05-14T15:24:56.752Z,97978.63
2023-05-14T15:29:58.773Z,97961.59
2023-05-14T15:35:01.406Z,97966.72
2023-05-14T15:40:03.771Z,97961.72
2023-05-14T15:45:06.656Z,97965.56
2023-05-14T15:50:09.663Z,97959.34
2023-05-14T15:55:11.912Z,97967.22
2023-05-14T16:00:14.962Z,97956.28
2023-05-14T16:05:17.142Z,97957.03
2023-05-14T16:10:21.835Z,97943.19
2023-05-14T16:15:24.245Z,97941.78
2023-05-14T16:20:26.585Z,97945.47
2023-05-14T16:31:54.484Z,97940.72
2023-05-14T16:36:56.773Z,97933.97
2023-05-14T16:41:58.874Z,97934.56
2023-05-14T16:47:01.077Z,97944.59
2023-05-14T16:52:03.252Z,97948.56
2023-05-14T16:57:06.447Z,97942.00
2023-05-14T17:02:08.655Z,97946.03
2023-05-14T17:07:11.252Z,97948.16
2023-05-14T17:12:14.359Z,97957.41
2023-05-14T17:17:16.593Z,97946.03
2023-05-14T17:22:19.303Z,97944.56
2023-05-14T17:27:22.005Z,97941.16
2023-05-14T17:32:24.525Z,97931.38
2023-05-14T17:37:27.126Z,97925.22
2023-05-14T17:42:29.367Z,97932.00
2023-05-14T17:47:31.645Z,97923.75
2023-05-14T17:52:33.972Z,97926.59
2023-05-14T17:57:36.344Z,97915.59
2023-05-14T18:02:39.412Z,97913.75
2023-05-14T18:07:42.369Z,97901.13
2023-05-14T18:12:45.026Z,97880.88
2023-05-14T18:17:48.982Z,97877.66
2023-05-14T18:22:52.101Z,97877.94
2023-05-14T18:27:54.744Z,97892.53
2023-05-14T18:32:57.269Z,97894.63
2023-05-14T18:38:01.286Z,97912.56
2023-05-14T18:43:03.712Z,97918.44
2023-05-14T18:48:06.798Z,97923.03
2023-05-14T18:53:09.319Z,97924.50
2023-05-14T18:58:12.756Z,97917.38
2023-05-14T19:03:15.195Z,97916.88
2023-05-14T19:08:17.783Z,97934.50
2023-05-14T19:13:20.190Z,97925.91
2023-05-14T19:18:22.586Z,97917.94
2023-05-14T19:23:24.918Z,97937.84
2023-05-14T19:28:27.275Z,97926.28
2023-05-14T19:33:29.728Z,97939.75
2023-05-14T19:38:32.110Z,97937.59
2023-05-14T19:43:35.028Z,97910.09
2023-05-14T19:48:37.346Z,97889.56
2023-05-14T19:53:39.620Z,97887.78
2023-05-14T19:58:42.000Z,97904.34
2023-05-14T20:03:44.510Z,97915.50
2023-05-14T20:08:47.135Z,97908.19
2023-05-14T20:13:50.340Z,97910.66
2023-05-14T20:18:54.496Z,97912.75
2023-05-14T20:23:58.582Z,97909.47
2023-05-14T20:29:00.943Z,97893.31
2023-05-14T20:34:03.375Z,97882.25
2023-05-14T20:39:07.016Z,97875.09
2023-05-14T20:44:09.326Z,97861.59
2023-05-14T20:49:11.657Z,97858.94
2023-05-14T20:54:13.508Z,97847.69
2023-05-14T20:59:15.181Z,97865.09
2023-05-14T21:04:16.947Z,97869.50
2023-05-14T21:09:18.672Z,97860.69
2023-05-14T21:14:20.532Z,97868.22
2023-05-14T21:19:23.292Z,97869.94
2023-05-14T21:24:24.928Z,97864.94
2023-05-14T21:29:26.512Z,97861.97
2023-05-14T21:34:29.780Z,97858.56
2023-05-14T21:39:32.687Z,97854.13
2023-05-14T21:44:34.259Z,97853.16
2023-05-14T21:49:35.860Z,97849.97
2023-05-14T21:54:37.432Z,97828.69
2023-05-14T21:59:38.974Z,97805.84
2023-05-14T22:04:40.698Z,97781.19
2023-05-14T22:09:42.260Z,97800.97
2023-05-14T22:14:43.874Z,97795.56
2023-05-14T22:19:45.611Z,97789.50
2023-05-14T22:24:47.133Z,97793.34
2023-05-14T22:29:48.684Z,97807.81
2023-05-14T22:34:51.568Z,97793.56
2023-05-14T22:39:53.121Z,97791.78
2023-05-14T22:44:54.671Z,97790.91
2023-05-14T22:49:56.297Z,97811.66
2023-05-14T22:54:57.829Z,97811.69
2023-05-14T22:59:59.460Z,97804.91
2023-05-14T23:05:01.047Z,97807.25
2023-05-14T23:10:02.676Z,97828.75
2023-05-14T23:15:04.704Z,97799.94
2023-05-14T23:20:06.986Z,97808.84
2023-05-14T23:25:09.077Z,97794.63
2023-05-14T23:30:11.131Z,97760.38
2023-05-14T23:35:12.776Z,97765.81
2023-05-14T23:40:15.850Z,97763.84
2023-05-14T23:45:17.523Z,97741.88
2023-05-14T23:50:19.175Z,97735.66
2023-05-14T23:55:20.982Z,97730.91
